createdAt,value
2019-03-28T00:01:44.520Z,16.33
2019-03-28T00:04:18.806Z,15.03
2019-03-28T00:06:53.504Z,15.80
2019-03-28T00:09:25.814Z,15.00
2019-03-28T00:12:04.899Z,15.40
2019-03-28T00:14:41.416Z,15.57
2019-03-28T00:17:32.647Z,15.90
2019-03-28T00:20:11.898Z,15.30
2019-03-28T00:22:57.150Z,15.90
2019-03-28T00:25:41.280Z,14.20
2019-03-28T00:28:15.947Z,16.83
2019-03-28T00:30:50.834Z,15.60
2019-03-28T00:33:22.977Z,15.30
2019-03-28T00:35:56.516Z,16.00
2019-03-28T00:38:41.775Z,15.37
2019-03-28T00:41:14.409Z,16.27
2019-03-28T00:43:47.734Z,15.77
2019-03-28T00:46:25.873Z,22.73
2019-03-28T00:48:57.228Z,17.67
2019-03-28T00:51:31.439Z,16.90
2019-03-28T00:54:03.242Z,15.83
2019-03-28T00:56:47.357Z,16.33
2019-03-28T00:59:20.154Z,16.03
2019-03-28T01:01:54.567Z,15.77
2019-03-28T01:04:26.282Z,16.73
2019-03-28T01:06:58.473Z,15.87
2019-03-28T01:09:33.072Z,15.83
2019-03-28T01:12:36.313Z,17.67
2019-03-28T01:15:08.795Z,16.90
2019-03-28T01:17:59.316Z,17.03
2019-03-28T01:20:47.299Z,16.27
2019-03-28T01:23:21.090Z,16.60
2019-03-28T01:25:56.583Z,17.73
2019-03-28T01:28:32.924Z,16.90
2019-03-28T01:31:06.954Z,16.17
2019-03-28T01:33:44.020Z,18.30
2019-03-28T01:36:35.181Z,17.53
2019-03-28T01:39:29.086Z,17.20
2019-03-28T01:42:22.019Z,19.03
2019-03-28T01:45:01.770Z,18.50
2019-03-28T01:47:54.439Z,16.63
2019-03-28T01:50:46.663Z,18.00
2019-03-28T01:53:38.395Z,16.77
2019-03-28T01:56:32.127Z,16.70
2019-03-28T01:59:06.349Z,17.83
2019-03-28T02:01:44.553Z,18.00
2019-03-28T02:04:17.705Z,16.53
2019-03-28T02:06:51.920Z,18.13
2019-03-28T02:09:24.812Z,17.40
2019-03-28T02:11:58.236Z,16.90
2019-03-28T02:14:31.907Z,17.17
2019-03-28T02:17:06.266Z,17.30
2019-03-28T02:19:38.846Z,16.53
2019-03-28T02:22:13.833Z,17.80
2019-03-28T02:24:48.173Z,16.80
2019-03-28T02:27:26.004Z,17.90
2019-03-28T02:30:02.825Z,17.17
2019-03-28T02:32:53.247Z,16.80
2019-03-28T02:35:43.391Z,17.10
2019-03-28T02:38:20.335Z,16.13
2019-03-28T02:40:54.688Z,16.53
2019-03-28T02:43:27.517Z,16.10
2019-03-28T02:46:01.488Z,16.40
2019-03-28T02:48:36.206Z,17.00
2019-03-28T02:51:13.387Z,16.73
2019-03-28T02:53:47.563Z,16.27
2019-03-28T02:56:21.728Z,16.17
2019-03-28T02:58:53.505Z,16.43
2019-03-28T03:01:30.389Z,16.87
2019-03-28T03:04:13.701Z,16.23
2019-03-28T03:06:48.592Z,16.83
2019-03-28T03:09:45.486Z,16.73
2019-03-28T03:12:18.617Z,17.07
2019-03-28T03:14:52.524Z,16.50
2019-03-28T03:17:27.545Z,17.87
2019-03-28T03:20:05.411Z,17.63
2019-03-28T03:22:39.189Z,16.73
2019-03-28T03:25:11.885Z,16.43
2019-03-28T03:27:58.267Z,18.10
2019-03-28T03:30:31.699Z,16.80
2019-03-28T03:33:10.826Z,17.53
2019-03-28T03:36:06.921Z,15.93
2019-03-28T03:38:40.684Z,16.60
2019-03-28T03:41:16.812Z,16.40
2019-03-28T03:43:49.982Z,17.13
2019-03-28T03:46:25.072Z,17.10
2019-03-28T03:48:57.516Z,17.80
2019-03-28T03:51:33.221Z,17.20
2019-03-28T03:54:07.257Z,17.00
2019-03-28T03:56:53.478Z,17.30
2019-03-28T03:59:31.950Z,17.20
2019-03-28T04:02:22.594Z,17.93
2019-03-28T04:05:14.610Z,16.00
2019-03-28T04:08:06.029Z,17.27
2019-03-28T04:11:01.618Z,16.03
2019-03-28T04:13:38.956Z,16.90
2019-03-28T04:16:13.804Z,16.90
2019-03-28T04:18:52.271Z,17.30
2019-03-28T04:21:25.256Z,16.70
2019-03-28T04:24:02.087Z,17.97
2019-03-28T04:26:36.793Z,17.73
2019-03-28T04:29:12.070Z,17.07
2019-03-28T04:31:46.438Z,16.80
2019-03-28T04:34:20.023Z,15.87
2019-03-28T04:36:55.877Z,16.50
2019-03-28T04:39:48.227Z,16.40
2019-03-28T04:42:21.925Z,17.40
2019-03-28T04:44:58.897Z,17.67
2019-03-28T04:47:33.184Z,16.57
2019-03-28T04:50:06.897Z,17.07
2019-03-28T04:53:11.507Z,14.87
2019-03-28T04:56:12.477Z,15.50
2019-03-28T04:58:52.563Z,15.23
2019-03-28T05:01:33.495Z,15.37
2019-03-28T05:04:21.256Z,15.90
2019-03-28T05:06:57.957Z,16.10
2019-03-28T05:09:39.823Z,16.10
2019-03-28T05:12:18.326Z,17.20
2019-03-28T05:15:11.762Z,16.20
2019-03-28T05:17:46.238Z,16.07
2019-03-28T05:20:21.704Z,17.07
2019-03-28T05:22:55.204Z,14.83
2019-03-28T05:25:35.723Z,15.77
2019-03-28T05:28:10.990Z,16.90
2019-03-28T05:30:45.575Z,16.80
2019-03-28T05:33:19.595Z,16.53
2019-03-28T05:35:54.644Z,16.10
2019-03-28T05:38:26.294Z,16.40
2019-03-28T05:41:02.123Z,15.30
2019-03-28T05:43:52.108Z,16.20
2019-03-28T05:46:42.359Z,16.50
2019-03-28T05:49:35.161Z,16.20
2019-03-28T05:52:24.702Z,17.03
2019-03-28T05:55:14.716Z,18.03
2019-03-28T05:57:57.542Z,16.83
2019-03-28T06:00:32.148Z,16.50
2019-03-28T06:03:22.849Z,16.90
2019-03-28T06:06:16.423Z,16.27
2019-03-28T06:09:13.110Z,14.87
2019-03-28T06:11:48.348Z,16.23
2019-03-28T06:14:30.205Z,16.10
2019-03-28T06:17:09.751Z,15.27
2019-03-28T06:19:43.792Z,14.77
2019-03-28T06:22:25.153Z,15.33
2019-03-28T06:25:00.619Z,18.60
2019-03-28T06:27:50.763Z,17.03
2019-03-28T06:30:24.674Z,16.40
2019-03-28T06:33:13.240Z,15.67
2019-03-28T06:35:48.335Z,16.50
2019-03-28T06:38:35.063Z,16.90
2019-03-28T06:41:20.494Z,15.83
2019-03-28T06:44:11.003Z,14.70
2019-03-28T06:47:00.785Z,14.63
2019-03-28T06:49:36.402Z,17.30
2019-03-28T06:52:09.201Z,16.43
2019-03-28T06:54:46.478Z,16.23
2019-03-28T06:57:24.105Z,15.83
2019-03-28T07:00:06.711Z,15.00
2019-03-28T07:02:40.512Z,16.70
2019-03-28T07:05:12.922Z,16.97
2019-03-28T07:07:49.456Z,17.37
2019-03-28T07:10:23.473Z,17.00
2019-03-28T07:12:58.741Z,17.60
2019-03-28T07:15:37.763Z,17.10
2019-03-28T07:18:11.017Z,16.40
2019-03-28T07:20:59.617Z,16.90
2019-03-28T07:23:44.992Z,15.63
2019-03-28T07:26:42.832Z,15.30
2019-03-28T07:29:09.567Z,15.77
2019-03-28T07:31:44.259Z,16.60
2019-03-28T07:34:26.123Z,16.23
2019-03-28T07:37:15.884Z,15.80
2019-03-28T07:40:08.371Z,16.27
2019-03-28T07:42:53.935Z,15.50
2019-03-28T07:45:30.061Z,15.57
2019-03-28T07:48:16.145Z,16.10
2019-03-28T07:50:48.761Z,17.00
2019-03-28T07:53:34.689Z,15.07
2019-03-28T07:56:13.326Z,17.63
2019-03-28T07:58:47.952Z,14.30
2019-03-28T08:01:27.703Z,16.57
2019-03-28T08:04:16.296Z,15.53
2019-03-28T08:06:51.877Z,14.70
2019-03-28T08:09:36.076Z,15.00
2019-03-28T08:12:03.222Z,15.83
2019-03-28T08:14:47.868Z,15.63
2019-03-28T08:17:33.247Z,15.73
2019-03-28T08:20:20.385Z,15.70
2019-03-28T08:22:57.127Z,15.30
2019-03-28T08:25:49.220Z,14.67
2019-03-28T08:28:37.678Z,16.20
2019-03-28T08:32:16.424Z,14.70
2019-03-28T08:34:49.690Z,15.53
2019-03-28T08:37:31.485Z,15.67
2019-03-28T08:40:05.513Z,15.50
2019-03-28T08:42:47.505Z,15.30
2019-03-28T08:45:24.072Z,15.33
2019-03-28T08:47:58.713Z,14.70
2019-03-28T08:50:34.852Z,14.73
2019-03-28T08:53:13.202Z,15.20
2019-03-28T08:55:48.123Z,15.53
2019-03-28T08:58:34.210Z,15.37
2019-03-28T09:04:01.351Z,16.07
2019-03-28T09:06:41.578Z,14.27
2019-03-28T09:09:21.013Z,16.00
2019-03-28T09:12:05.445Z,14.40
2019-03-28T09:14:54.410Z,14.50
2019-03-28T09:17:44.148Z,14.43
2019-03-28T09:20:26.108Z,15.13
2019-03-28T09:23:01.824Z,13.70
2019-03-28T09:25:39.815Z,16.47
2019-03-28T09:28:18.302Z,13.33
2019-03-28T09:31:18.945Z,14.53
2019-03-28T09:33:40.867Z,15.03
2019-03-28T09:36:14.799Z,14.73
2019-03-28T09:38:51.377Z,15.60
2019-03-28T09:41:26.210Z,14.50
2019-03-28T09:44:01.726Z,13.40
2019-03-28T09:46:47.348Z,13.93
2019-03-28T09:49:21.442Z,14.80
2019-03-28T09:51:54.279Z,13.37
2019-03-28T09:54:32.234Z,14.13
2019-03-28T09:57:23.794Z,14.13
2019-03-28T10:00:06.339Z,13.87
2019-03-28T10:02:39.248Z,12.93
2019-03-28T10:05:13.322Z,13.63
2019-03-28T10:07:56.179Z,13.57
2019-03-28T10:10:33.971Z,15.60
2019-03-28T10:13:05.410Z,14.87
2019-03-28T10:15:44.405Z,13.97
2019-03-28T10:18:29.881Z,12.70
2019-03-28T10:21:03.261Z,14.63
2019-03-28T10:23:49.826Z,14.20
2019-03-28T10:26:23.329Z,13.50
2019-03-28T10:28:58.624Z,13.40
2019-03-28T10:31:36.865Z,13.23
2019-03-28T10:34:29.250Z,12.77
2019-03-28T10:37:06.513Z,11.83
2019-03-28T10:39:45.887Z,12.73
2019-03-28T10:42:32.330Z,11.93
2019-03-28T10:45:33.475Z,11.03
2019-03-28T10:48:10.056Z,9.97
2019-03-28T10:51:00.349Z,9.67
2019-03-28T10:53:39.070Z,8.03
2019-03-28T10:56:25.355Z,8.43
2019-03-28T10:59:23.556Z,8.93
2019-03-28T11:02:00.202Z,9.53
2019-03-28T11:04:56.425Z,9.07
2019-03-28T11:07:36.638Z,10.20
2019-03-28T11:10:56.807Z,10.50
2019-03-28T11:13:31.977Z,10.90
2019-03-28T11:16:22.460Z,10.97
2019-03-28T11:19:15.569Z,11.40
2019-03-28T11:21:56.927Z,12.10
2019-03-28T11:24:29.263Z,10.90
2019-03-28T11:27:04.842Z,10.67
2019-03-28T11:29:38.412Z,11.57
2019-03-28T11:32:29.811Z,11.23
2019-03-28T11:35:09.482Z,10.60
2019-03-28T11:37:57.373Z,11.33
2019-03-28T11:40:34.582Z,11.37
2019-03-28T11:43:13.281Z,11.50
2019-03-28T11:45:50.824Z,11.90
2019-03-28T11:48:35.525Z,11.13
2019-03-28T11:51:12.661Z,12.30
2019-03-28T11:53:59.149Z,11.50
2019-03-28T11:56:41.395Z,11.13
2019-03-28T11:59:36.674Z,10.70
2019-03-28T12:02:20.424Z,9.70
2019-03-28T12:04:51.757Z,9.60
2019-03-28T12:07:35.387Z,10.00
2019-03-28T12:10:14.681Z,9.00
2019-03-28T12:12:49.057Z,11.70
2019-03-28T12:15:38.453Z,10.30
2019-03-28T12:18:16.082Z,10.23
2019-03-28T12:20:53.612Z,8.30
2019-03-28T12:23:56.138Z,8.50
2019-03-28T12:26:46.639Z,8.70
2019-03-28T12:29:28.173Z,8.27
2019-03-28T12:32:13.782Z,7.40
2019-03-28T12:34:41.778Z,8.30
2019-03-28T12:37:21.748Z,7.30
2019-03-28T12:40:07.457Z,7.10
2019-03-28T12:42:41.779Z,8.87
2019-03-28T12:45:23.663Z,8.07
2019-03-28T12:48:08.700Z,8.10
2019-03-28T12:50:59.095Z,7.50
2019-03-28T12:53:30.428Z,6.83
2019-03-28T12:56:26.443Z,7.67
2019-03-28T12:59:02.171Z,9.00
2019-03-28T13:01:39.860Z,7.40
2019-03-28T13:04:12.568Z,7.47
2019-03-28T13:06:49.820Z,7.03
2019-03-28T13:09:33.389Z,7.83
2019-03-28T13:12:08.485Z,8.97
2019-03-28T13:14:54.456Z,8.53
2019-03-28T13:17:38.867Z,8.77
2019-03-28T13:20:14.059Z,11.07
2019-03-28T13:23:05.600Z,11.07
2019-03-28T13:25:50.885Z,8.80
2019-03-28T13:28:28.758Z,9.00
2019-03-28T13:31:15.279Z,7.33
2019-03-28T13:33:50.970Z,7.10
2019-03-28T13:36:27.650Z,6.90
2019-03-28T13:39:05.745Z,7.30
2019-03-28T13:41:49.015Z,5.47
2019-03-28T13:44:20.997Z,5.70
2019-03-28T13:47:06.119Z,5.70
2019-03-28T13:49:46.210Z,5.03
2019-03-28T13:52:25.194Z,5.17
2019-03-28T13:55:03.953Z,5.10
2019-03-28T13:57:46.290Z,5.27
2019-03-28T14:00:33.307Z,4.87
2019-03-28T14:03:29.884Z,5.50
2019-03-28T14:06:03.783Z,5.60
2019-03-28T14:08:57.492Z,6.17
2019-03-28T14:11:36.020Z,6.33
2019-03-28T14:14:16.959Z,5.40
2019-03-28T14:16:53.080Z,5.37
2019-03-28T14:19:39.647Z,4.97
2019-03-28T14:22:20.780Z,5.30
2019-03-28T14:25:01.662Z,5.60
2019-03-28T14:27:41.963Z,5.00
2019-03-28T14:30:16.892Z,6.00
2019-03-28T14:33:18.590Z,6.10
2019-03-28T14:36:11.907Z,6.43
2019-03-28T14:39:01.933Z,5.13
2019-03-28T14:41:59.639Z,5.30
2019-03-28T14:44:36.083Z,5.17
2019-03-28T14:47:09.576Z,5.40
2019-03-28T14:49:42.887Z,4.77
2019-03-28T14:52:17.038Z,5.10
2019-03-28T14:54:51.747Z,5.90
2019-03-28T14:57:33.683Z,5.20
2019-03-28T15:00:22.008Z,5.50
2019-03-28T15:03:27.245Z,6.67
2019-03-28T15:05:59.063Z,6.33
2019-03-28T15:08:50.993Z,7.73
2019-03-28T15:11:48.153Z,7.90
2019-03-28T15:14:38.102Z,6.20
2019-03-28T15:17:19.242Z,7.30
2019-03-28T15:19:53.882Z,6.97
2019-03-28T15:22:40.387Z,7.23
2019-03-28T15:25:19.967Z,7.07
2019-03-28T15:28:09.715Z,6.23
2019-03-28T15:31:08.755Z,6.03
2019-03-28T15:34:16.494Z,6.40
2019-03-28T15:37:05.590Z,6.50
2019-03-28T15:39:39.228Z,5.50
2019-03-28T15:42:21.397Z,5.47
2019-03-28T15:44:59.361Z,8.90
2019-03-28T15:47:36.767Z,5.80
2019-03-28T15:50:18.174Z,4.80
2019-03-28T15:52:51.827Z,5.77
2019-03-28T15:55:27.967Z,6.23
2019-03-28T15:58:01.617Z,5.60
2019-03-28T16:00:51.719Z,5.70
2019-03-28T16:03:28.704Z,6.03
2019-03-28T16:06:03.060Z,5.80
2019-03-28T16:08:37.030Z,5.20
2019-03-28T16:11:11.078Z,6.00
2019-03-28T16:13:45.945Z,5.33
2019-03-28T16:16:18.166Z,5.37
2019-03-28T16:19:04.166Z,6.10
2019-03-28T16:21:55.449Z,6.00
2019-03-28T16:24:46.549Z,7.10
2019-03-28T16:27:26.867Z,6.60
2019-03-28T16:30:02.784Z,6.50
2019-03-28T16:32:37.908Z,6.67
2019-03-28T16:35:22.570Z,6.80
2019-03-28T16:38:01.778Z,6.13
2019-03-28T16:40:40.453Z,6.00
2019-03-28T16:43:30.824Z,5.80
2019-03-28T16:46:07.809Z,6.70
2019-03-28T16:49:05.386Z,5.87
2019-03-28T16:51:51.823Z,6.90
2019-03-28T16:54:32.031Z,7.00
2019-03-28T16:57:38.715Z,6.53
2019-03-28T17:00:24.441Z,7.67
2019-03-28T17:03:04.879Z,6.97
2019-03-28T17:05:56.011Z,7.93
2019-03-28T17:08:48.147Z,9.30
2019-03-28T17:11:23.649Z,8.40
2019-03-28T17:14:02.201Z,7.60
2019-03-28T17:16:55.041Z,7.97
2019-03-28T17:19:43.847Z,6.50
2019-03-28T17:22:18.050Z,7.47
2019-03-28T17:24:56.251Z,7.30
2019-03-28T17:27:42.842Z,7.73
2019-03-28T17:30:19.323Z,7.80
2019-03-28T17:33:02.595Z,8.23
2019-03-28T17:35:38.581Z,7.73
2019-03-28T17:38:12.358Z,7.63
2019-03-28T17:41:00.255Z,7.43
2019-03-28T17:44:02.049Z,8.07
2019-03-28T17:46:37.949Z,7.83
2019-03-28T17:49:33.038Z,8.40
2019-03-28T17:52:19.193Z,8.17
2019-03-28T17:54:53.073Z,7.50
2019-03-28T17:57:28.496Z,8.90
2019-03-28T18:00:02.331Z,8.47
2019-03-28T18:02:38.381Z,9.13
2019-03-28T18:05:32.340Z,8.80
2019-03-28T18:08:13.489Z,8.30
2019-03-28T18:10:50.996Z,9.10
2019-03-28T18:13:28.069Z,7.97
2019-03-28T18:16:07.569Z,8.73
2019-03-28T18:18:47.889Z,8.87
2019-03-28T18:21:39.006Z,8.43
2019-03-28T18:24:16.819Z,8.13
2019-03-28T18:26:59.002Z,9.57
2019-03-28T18:29:35.918Z,9.03
2019-03-28T18:32:32.762Z,8.40
2019-03-28T18:35:31.187Z,11.67
2019-03-28T18:38:12.106Z,12.23
2019-03-28T18:40:51.868Z,10.97
2019-03-28T18:43:30.957Z,13.87
2019-03-28T18:46:29.203Z,11.30
2019-03-28T18:49:07.224Z,11.83
2019-03-28T19:03:03.265Z,16.30
2019-03-28T19:05:54.368Z,17.90
2019-03-28T19:08:42.802Z,17.97
2019-03-28T19:11:27.144Z,17.67
2019-03-28T19:14:10.551Z,19.43
2019-03-28T19:16:56.467Z,20.90
2019-03-28T19:19:41.739Z,22.37
2019-03-28T19:22:27.175Z,19.50
2019-03-28T19:25:21.717Z,21.00
2019-03-28T19:28:27.995Z,19.87
2019-03-28T19:31:30.551Z,19.50
2019-03-28T19:34:17.175Z,21.20
2019-03-28T19:37:18.543Z,21.60
2019-03-28T19:40:27.587Z,20.27
2019-03-28T19:43:33.055Z,21.73
2019-03-28T19:46:19.339Z,20.00
2019-03-28T19:49:42.208Z,22.73
2019-03-28T19:53:17.805Z,22.37
2019-03-28T19:56:02.848Z,20.90
2019-03-28T20:03:23.245Z,21.47
2019-03-28T20:11:08.478Z,22.30
2019-03-28T20:14:19.274Z,22.83
2019-03-28T20:21:59.995Z,22.17
2019-03-28T20:25:14.246Z,23.20
2019-03-28T20:28:26.493Z,32.97
2019-03-28T20:35:42.261Z,23.43
2019-03-28T20:38:45.116Z,22.10
2019-03-28T20:42:29.885Z,21.93
2019-03-28T20:48:56.872Z,21.40
2019-03-28T20:59:47.261Z,21.60
2019-03-28T21:02:28.572Z,21.00
2019-03-28T21:05:33.655Z,22.00
2019-03-28T21:08:31.457Z,21.60
2019-03-28T21:11:52.001Z,20.83
2019-03-28T21:14:53.245Z,20.40
2019-03-28T21:21:28.902Z,22.13
2019-03-28T21:25:05.815Z,22.20
2019-03-28T21:27:46.191Z,21.80
2019-03-28T21:30:46.693Z,20.70
2019-03-28T21:33:42.369Z,21.13
2019-03-28T21:40:33.906Z,21.93
2019-03-28T21:43:34.146Z,21.80
2019-03-28T21:46:44.236Z,22.80
2019-03-28T21:49:59.485Z,21.77
2019-03-28T21:53:29.043Z,22.80
2019-03-28T21:56:30.599Z,22.63
2019-03-28T21:59:25.584Z,22.57
2019-03-28T22:02:48.229Z,23.50
2019-03-28T22:06:09.196Z,23.67
2019-03-28T22:09:19.910Z,21.80
2019-03-28T22:12:00.830Z,23.53
2019-03-28T22:14:49.366Z,23.53
2019-03-28T22:21:17.552Z,23.20
2019-03-28T22:24:58.734Z,22.90
2019-03-28T22:28:10.597Z,23.13
2019-03-28T22:30:53.752Z,23.13
2019-03-28T22:33:57.097Z,24.70
2019-03-28T22:36:36.994Z,26.40
2019-03-28T22:39:17.986Z,22.90
2019-03-28T22:42:02.732Z,23.97
2019-03-28T22:45:04.818Z,24.17
2019-03-28T22:47:48.858Z,24.27
2019-03-28T22:50:50.069Z,25.20
2019-03-28T22:53:45.111Z,25.27
2019-03-28T22:56:50.023Z,24.07
2019-03-28T22:59:27.227Z,23.13
2019-03-28T23:02:06.126Z,23.70
2019-03-28T23:04:44.563Z,24.80
2019-03-28T23:07:31.244Z,24.20
2019-03-28T23:10:05.969Z,24.50
2019-03-28T23:12:58.723Z,23.93
2019-03-28T23:15:37.711Z,25.00
2019-03-28T23:18:11.309Z,23.67
2019-03-28T23:21:03.446Z,23.60
2019-03-28T23:24:00.439Z,23.93
2019-03-28T23:27:06.539Z,22.63
2019-03-28T23:29:40.720Z,22.17
2019-03-28T23:32:19.365Z,22.67
2019-03-28T23:35:14.827Z,20.63
2019-03-28T23:38:06.415Z,20.93
2019-03-28T23:40:46.348Z,21.33
2019-03-28T23:43:28.249Z,21.37
2019-03-28T23:46:08.421Z,22.90
2019-03-28T23:49:01.845Z,21.00
2019-03-28T23:51:41.073Z,21.87
2019-03-28T23:54:27.010Z,22.33
2019-03-28T23:57:16.860Z,19.67
